createdAt,value
2017-08-11T00:00:12.391Z,3.00
2017-08-11T00:02:39.585Z,2.20
2017-08-11T00:05:06.087Z,2.33
2017-08-11T00:07:33.250Z,2.63
2017-08-11T00:09:59.679Z,2.40
2017-08-11T00:12:26.096Z,2.40
2017-08-11T00:14:53.323Z,3.17
2017-08-11T00:17:19.669Z,4.20
2017-08-11T00:19:46.960Z,3.43
2017-08-11T00:22:13.253Z,2.93
2017-08-11T00:24:40.571Z,2.40
2017-08-11T00:27:06.939Z,2.73
2017-08-11T00:29:33.253Z,2.30
2017-08-11T00:31:59.569Z,4.93
2017-08-11T00:34:26.192Z,2.10
2017-08-11T00:36:52.496Z,6.77
2017-08-11T00:39:18.865Z,2.67
2017-08-11T00:41:45.275Z,3.23
2017-08-11T00:44:11.646Z,3.00
2017-08-11T00:46:38.216Z,3.07
2017-08-11T00:49:04.606Z,2.20
2017-08-11T00:51:30.927Z,3.73
2017-08-11T00:53:57.222Z,2.40
2017-08-11T00:56:23.572Z,1.67
2017-08-11T00:58:49.947Z,2.90
2017-08-11T01:01:16.246Z,1.47
2017-08-11T01:03:42.580Z,1.50
2017-08-11T01:06:08.955Z,1.87
2017-08-11T01:08:36.177Z,3.50
2017-08-11T01:11:02.539Z,2.43
2017-08-11T01:13:29.710Z,2.10
2017-08-11T01:15:56.044Z,1.90
2017-08-11T01:18:22.371Z,2.90
2017-08-11T01:20:48.760Z,3.40
2017-08-11T01:23:15.078Z,2.20
2017-08-11T01:25:41.627Z,1.83
2017-08-11T01:28:07.991Z,1.93
2017-08-11T01:30:34.343Z,3.47
2017-08-11T01:33:00.652Z,2.90
2017-08-11T01:35:27.031Z,1.73
2017-08-11T01:37:53.345Z,2.03
2017-08-11T01:40:19.726Z,3.07
2017-08-11T01:42:47.037Z,2.20
2017-08-11T01:45:13.391Z,1.97
2017-08-11T01:47:39.823Z,1.90
2017-08-11T01:50:06.251Z,1.90
2017-08-11T01:52:32.595Z,4.60
2017-08-11T01:54:58.938Z,2.03
2017-08-11T01:57:25.324Z,2.43
2017-08-11T01:59:51.710Z,1.83
2017-08-11T02:02:19.043Z,1.60
2017-08-11T02:04:45.447Z,3.30
2017-08-11T02:07:11.863Z,2.23
2017-08-11T02:09:38.221Z,1.73
2017-08-11T02:12:04.560Z,2.30
2017-08-11T02:14:30.945Z,4.43
2017-08-11T02:16:57.271Z,2.10
2017-08-11T02:19:23.631Z,2.17
2017-08-11T02:21:49.986Z,2.80
2017-08-11T02:24:16.328Z,2.83
2017-08-11T02:26:42.719Z,1.90
2017-08-11T02:29:09.104Z,2.90
2017-08-11T02:31:35.460Z,2.20
2017-08-11T02:34:01.775Z,3.33
2017-08-11T02:36:29.218Z,2.00
2017-08-11T02:38:55.575Z,3.90
2017-08-11T02:41:22.865Z,2.20
2017-08-11T02:43:49.175Z,2.33
2017-08-11T02:46:15.568Z,4.43
2017-08-11T02:48:41.911Z,2.20
2017-08-11T02:51:09.159Z,2.20
2017-08-11T02:53:36.418Z,2.67
2017-08-11T02:56:03.571Z,1.93
2017-08-11T02:58:29.863Z,3.00
2017-08-11T03:00:56.231Z,4.17
2017-08-11T03:03:23.346Z,2.10
2017-08-11T03:05:49.700Z,1.90
2017-08-11T03:08:16.995Z,2.10
2017-08-11T03:10:43.351Z,3.27
2017-08-11T03:13:09.653Z,2.10
2017-08-11T03:15:36.098Z,1.77
2017-08-11T03:18:02.467Z,1.57
2017-08-11T03:20:28.794Z,2.07
2017-08-11T03:22:55.135Z,1.80
2017-08-11T03:25:21.438Z,1.93
2017-08-11T03:27:47.774Z,2.20
2017-08-11T03:30:14.128Z,2.60
2017-08-11T03:32:40.542Z,2.00
2017-08-11T03:35:06.847Z,1.77
2017-08-11T03:37:33.196Z,1.60
2017-08-11T03:39:59.496Z,1.80
2017-08-11T03:42:25.855Z,2.10
2017-08-11T03:44:52.180Z,2.73
2017-08-11T03:47:20.475Z,1.60
2017-08-11T03:49:46.815Z,1.97
2017-08-11T03:52:13.171Z,2.77
2017-08-11T03:54:40.251Z,4.33
2017-08-11T03:57:06.572Z,1.80
2017-08-11T03:59:32.914Z,3.23
2017-08-11T04:01:59.276Z,2.20
2017-08-11T04:04:25.650Z,2.50
2017-08-11T04:06:52.009Z,2.40
2017-08-11T04:09:18.350Z,1.73
2017-08-11T04:11:44.726Z,3.57
2017-08-11T04:14:11.945Z,2.20
2017-08-11T04:16:38.360Z,2.30
2017-08-11T04:19:04.661Z,2.00
2017-08-11T04:21:31.032Z,2.10
2017-08-11T04:23:57.401Z,2.10
2017-08-11T04:26:24.800Z,4.57
2017-08-11T04:28:51.176Z,2.50
2017-08-11T04:31:17.479Z,2.23
2017-08-11T04:33:43.799Z,4.30
2017-08-11T04:36:10.152Z,3.53
2017-08-11T04:38:36.519Z,2.67
2017-08-11T04:41:03.602Z,2.87
2017-08-11T04:43:30.053Z,3.40
2017-08-11T04:45:56.372Z,1.60
2017-08-11T04:48:22.717Z,2.30
2017-08-11T04:50:49.132Z,2.23
2017-08-11T04:53:15.469Z,2.20
2017-08-11T04:55:41.779Z,2.00
2017-08-11T04:58:08.380Z,2.30
2017-08-11T05:00:35.619Z,2.00
2017-08-11T05:03:01.910Z,2.30
2017-08-11T05:05:28.370Z,2.63
2017-08-11T05:07:54.686Z,2.33
2017-08-11T05:10:20.993Z,2.03
2017-08-11T05:12:47.366Z,1.93
2017-08-11T05:15:13.860Z,2.40
2017-08-11T05:17:40.178Z,2.57
2017-08-11T05:20:06.519Z,2.53
2017-08-11T05:22:32.920Z,2.07
2017-08-11T05:25:00.134Z,2.53
2017-08-11T05:27:26.573Z,3.10
2017-08-11T05:29:53.184Z,2.90
2017-08-11T05:32:19.842Z,2.47
2017-08-11T05:34:47.204Z,2.70
2017-08-11T05:37:14.154Z,2.87
2017-08-11T05:39:40.983Z,2.50
2017-08-11T05:42:07.746Z,2.13
2017-08-11T05:44:34.323Z,2.10
2017-08-11T05:47:01.202Z,2.00
2017-08-11T05:49:28.166Z,3.53
2017-08-11T05:51:54.899Z,2.00
2017-08-11T05:54:21.755Z,2.33
2017-08-11T05:56:48.144Z,3.03
2017-08-11T05:59:14.680Z,1.90
2017-08-11T06:01:41.236Z,2.23
2017-08-11T06:04:07.833Z,7.93
2017-08-11T06:06:34.526Z,2.57
2017-08-11T06:09:01.055Z,2.30
2017-08-11T06:11:27.571Z,2.07
2017-08-11T06:13:53.997Z,2.93
2017-08-11T06:16:20.318Z,2.40
2017-08-11T06:18:46.694Z,3.17
2017-08-11T06:21:13.112Z,2.10
2017-08-11T06:23:39.451Z,3.60
2017-08-11T06:26:06.044Z,3.30
2017-08-11T06:28:32.622Z,3.23
2017-08-11T06:30:59.115Z,2.50
2017-08-11T06:33:25.684Z,3.10
2017-08-11T06:35:52.442Z,3.13
2017-08-11T06:38:18.953Z,3.50
2017-08-11T06:40:45.605Z,2.50
2017-08-11T06:43:12.453Z,3.20
2017-08-11T06:45:39.884Z,3.13
2017-08-11T06:48:06.575Z,3.57
2017-08-11T06:50:33.404Z,2.60
2017-08-11T06:52:59.853Z,3.20
2017-08-11T06:55:27.721Z,3.43
2017-08-11T06:57:55.033Z,4.10
2017-08-11T07:00:21.600Z,3.90
2017-08-11T07:02:48.720Z,4.13
2017-08-11T07:05:15.467Z,4.30
2017-08-11T07:07:42.217Z,3.97
2017-08-11T07:10:08.935Z,4.77
2017-08-11T07:12:35.282Z,6.30
2017-08-11T07:15:01.904Z,4.50
2017-08-11T07:17:28.714Z,4.83
2017-08-11T07:19:55.726Z,5.23
2017-08-11T07:22:22.064Z,5.30
2017-08-11T07:24:48.406Z,4.50
2017-08-11T07:27:16.015Z,4.83
2017-08-11T07:29:43.137Z,3.63
2017-08-11T07:32:09.801Z,4.10
2017-08-11T07:34:36.668Z,4.07
2017-08-11T07:37:03.386Z,4.13
2017-08-11T07:39:29.911Z,4.80
2017-08-11T07:41:56.584Z,4.80
2017-08-11T07:44:22.995Z,4.60
2017-08-11T07:46:49.756Z,5.03
2017-08-11T07:49:16.490Z,5.10
2017-08-11T07:51:43.327Z,4.87
2017-08-11T07:54:10.170Z,4.20
2017-08-11T07:56:37.028Z,5.50
2017-08-11T07:59:03.750Z,4.27
2017-08-11T08:01:30.482Z,3.93
2017-08-11T08:03:57.333Z,4.20
2017-08-11T08:06:24.077Z,4.07
2017-08-11T08:08:50.701Z,3.70
2017-08-11T08:11:17.683Z,4.20
2017-08-11T08:13:44.304Z,3.53
2017-08-11T08:16:11.149Z,3.43
2017-08-11T08:18:37.769Z,3.73
2017-08-11T08:21:04.208Z,4.17
2017-08-11T08:23:30.546Z,4.50
2017-08-11T08:25:56.895Z,4.40
2017-08-11T08:28:23.217Z,3.77
2017-08-11T08:30:49.602Z,4.20
2017-08-11T08:33:15.901Z,4.00
2017-08-11T08:35:42.983Z,3.87
2017-08-11T08:38:09.328Z,5.53
2017-08-11T08:40:35.632Z,4.67
2017-08-11T08:43:01.983Z,4.93
2017-08-11T08:45:28.298Z,5.87
2017-08-11T08:47:54.604Z,6.60
2017-08-11T08:50:21.715Z,6.30
2017-08-11T08:52:48.048Z,8.60
2017-08-11T08:55:14.405Z,10.63
2017-08-11T08:57:41.552Z,10.40
2017-08-11T09:00:10.305Z,10.87
2017-08-11T09:02:36.661Z,10.77
2017-08-11T09:05:03.073Z,12.67
2017-08-11T09:07:29.392Z,12.60
2017-08-11T09:09:55.792Z,12.33
2017-08-11T09:12:22.831Z,12.53
2017-08-11T09:14:49.898Z,14.00
2017-08-11T09:17:16.462Z,13.23
2017-08-11T09:19:42.817Z,12.77
2017-08-11T09:22:09.266Z,12.57
2017-08-11T09:24:59.622Z,12.90
2017-08-11T09:27:38.335Z,13.80
2017-08-11T09:30:17.043Z,13.60
2017-08-11T09:32:55.647Z,14.87
2017-08-11T09:35:34.372Z,16.90
2017-08-11T09:38:00.763Z,19.90
2017-08-11T09:40:27.157Z,18.30
2017-08-11T09:42:54.283Z,18.40
2017-08-11T09:45:20.636Z,16.03
2017-08-11T09:47:47.002Z,17.00
2017-08-11T09:50:13.371Z,18.30
2017-08-11T09:52:40.437Z,16.17
2017-08-11T09:55:06.800Z,19.87
2017-08-11T09:57:33.220Z,18.60
2017-08-11T09:59:59.767Z,17.97
2017-08-11T10:02:26.100Z,17.43
2017-08-11T10:04:52.452Z,25.27
2017-08-11T10:07:18.924Z,18.70
2017-08-11T10:09:45.223Z,17.40
2017-08-11T10:12:11.585Z,15.23
2017-08-11T10:14:37.926Z,17.97
2017-08-11T10:17:04.397Z,16.47
2017-08-11T10:19:30.796Z,14.40
2017-08-11T10:21:57.123Z,15.03
2017-08-11T10:24:23.426Z,15.97
2017-08-11T10:26:50.672Z,15.87
2017-08-11T10:29:17.228Z,16.17
2017-08-11T10:31:44.329Z,16.40
2017-08-11T10:34:10.676Z,13.57
2017-08-11T10:36:37.032Z,15.00
2017-08-11T10:39:04.243Z,14.73
2017-08-11T10:41:30.697Z,15.93
2017-08-11T10:43:57.788Z,17.80
2017-08-11T10:46:24.152Z,17.43
2017-08-11T10:48:50.446Z,21.73
2017-08-11T10:51:16.843Z,19.70
2017-08-11T10:53:43.175Z,23.27
2017-08-11T10:56:09.495Z,19.87
2017-08-11T10:58:35.829Z,15.37
2017-08-11T11:01:02.156Z,21.97
2017-08-11T11:03:28.516Z,20.70
2017-08-11T11:05:56.041Z,21.40
2017-08-11T11:08:23.184Z,25.60
2017-08-11T11:10:49.552Z,24.20
2017-08-11T11:13:16.621Z,30.27
2017-08-11T11:15:42.955Z,25.20
2017-08-11T11:18:09.396Z,23.47
2017-08-11T11:20:35.882Z,22.90
2017-08-11T11:23:02.186Z,23.00
2017-08-11T11:25:28.525Z,22.90
2017-08-11T11:27:54.860Z,21.77
2017-08-11T11:30:21.291Z,23.10
2017-08-11T11:32:47.732Z,25.07
2017-08-11T11:35:14.040Z,23.27
2017-08-11T11:37:40.400Z,23.20
2017-08-11T11:40:06.765Z,26.57
2017-08-11T11:42:34.251Z,26.27
2017-08-11T11:45:00.663Z,22.57
2017-08-11T11:47:27.036Z,26.07
2017-08-11T11:49:53.360Z,23.13
2017-08-11T11:52:19.802Z,24.53
2017-08-11T11:54:46.317Z,22.90
2017-08-11T11:57:12.648Z,22.03
2017-08-11T11:59:38.951Z,22.63
2017-08-11T12:02:05.405Z,22.67
2017-08-11T12:04:31.743Z,23.30
2017-08-11T12:06:58.058Z,19.90
2017-08-11T12:09:24.441Z,24.87
2017-08-11T12:11:51.578Z,20.20
2017-08-11T12:14:17.923Z,21.33
2017-08-11T12:16:44.233Z,18.30
2017-08-11T12:19:10.585Z,16.63
2017-08-11T12:21:36.893Z,19.43
2017-08-11T12:24:03.291Z,18.83
2017-08-11T12:26:29.693Z,20.70
2017-08-11T12:28:56.822Z,19.50
2017-08-11T12:31:23.159Z,17.93
2017-08-11T12:33:49.807Z,18.40
2017-08-11T12:36:16.991Z,20.03
2017-08-11T12:38:43.540Z,18.07
2017-08-11T12:41:09.848Z,20.63
2017-08-11T12:43:36.918Z,18.60
2017-08-11T12:46:03.316Z,18.43
2017-08-11T12:48:30.479Z,17.30
2017-08-11T12:50:57.389Z,15.40
2017-08-11T12:53:25.291Z,13.70
2017-08-11T12:55:52.258Z,15.00
2017-08-11T12:58:18.663Z,18.47
2017-08-11T13:00:46.108Z,14.43
2017-08-11T13:03:13.273Z,14.37
2017-08-11T13:05:39.578Z,13.93
2017-08-11T13:08:07.276Z,15.87
2017-08-11T13:10:33.590Z,16.17
2017-08-11T13:12:59.944Z,15.63
2017-08-11T13:15:26.247Z,18.93
2017-08-11T13:17:53.323Z,13.97
2017-08-11T13:20:19.672Z,17.90
2017-08-11T13:22:46.661Z,15.67
2017-08-11T13:25:13.798Z,16.30
2017-08-11T13:27:40.341Z,16.43
2017-08-11T13:30:07.444Z,18.30
2017-08-11T13:32:33.791Z,20.17
2017-08-11T13:35:00.560Z,18.67
2017-08-11T13:37:26.944Z,18.00
2017-08-11T13:39:53.687Z,16.80
2017-08-11T13:42:20.071Z,14.33
2017-08-11T13:44:47.498Z,13.10
2017-08-11T13:47:14.752Z,13.47
2017-08-11T13:49:41.435Z,14.27
2017-08-11T13:52:07.749Z,13.70
2017-08-11T13:54:35.086Z,17.90
2017-08-11T13:57:01.415Z,14.07
2017-08-11T13:59:27.760Z,11.73
2017-08-11T14:01:54.934Z,12.30
2017-08-11T14:04:21.287Z,15.37
2017-08-11T14:06:47.629Z,14.00
2017-08-11T14:09:13.993Z,13.87
2017-08-11T14:11:40.498Z,14.13
2017-08-11T14:14:06.850Z,14.67
2017-08-11T14:16:33.169Z,13.93
2017-08-11T14:18:59.499Z,18.77
2017-08-11T14:21:27.159Z,14.43
2017-08-11T14:24:10.440Z,13.30
2017-08-11T14:26:36.800Z,13.97
2017-08-11T14:29:03.370Z,13.70
2017-08-11T14:31:30.082Z,15.17
2017-08-11T14:33:56.454Z,13.90
2017-08-11T14:36:22.763Z,17.90
2017-08-11T14:38:49.125Z,14.37
2017-08-11T14:41:16.249Z,14.80
2017-08-11T14:43:42.588Z,14.80
2017-08-11T14:46:09.083Z,14.67
2017-08-11T14:48:35.388Z,12.80
2017-08-11T14:51:01.696Z,13.50
2017-08-11T14:53:28.043Z,13.97
2017-08-11T14:55:55.545Z,14.50
2017-08-11T14:58:22.873Z,16.93
2017-08-11T15:00:49.308Z,13.90
2017-08-11T15:03:15.640Z,20.50
2017-08-11T15:05:42.525Z,19.17
2017-08-11T15:08:08.820Z,14.80
2017-08-11T15:10:35.274Z,14.50
2017-08-11T15:13:01.572Z,15.30
2017-08-11T15:15:27.871Z,15.30
2017-08-11T15:17:54.291Z,15.57
2017-08-11T15:20:20.694Z,16.63
2017-08-11T15:22:47.070Z,18.17
2017-08-11T15:25:14.132Z,19.47
2017-08-11T15:27:40.628Z,20.93
2017-08-11T15:30:07.041Z,21.00
2017-08-11T15:32:33.348Z,20.37
2017-08-11T15:34:59.646Z,21.60
2017-08-11T15:37:26.796Z,25.40
2017-08-11T15:39:53.904Z,30.57
2017-08-11T15:42:20.326Z,32.57
2017-08-11T15:44:46.893Z,26.37
2017-08-11T15:47:13.293Z,28.77
2017-08-11T15:49:39.644Z,33.07
2017-08-11T15:52:05.978Z,26.87
2017-08-11T15:54:32.349Z,28.67
2017-08-11T15:56:59.521Z,30.20
2017-08-11T15:59:25.885Z,26.33
2017-08-11T16:01:52.307Z,20.80
2017-08-11T16:04:18.687Z,30.17
2017-08-11T16:06:45.747Z,31.83
2017-08-11T16:09:12.851Z,30.67
2017-08-11T16:11:39.160Z,27.17
2017-08-11T16:14:05.588Z,41.87
2017-08-11T16:16:31.952Z,24.60
2017-08-11T16:18:58.300Z,23.70
2017-08-11T16:21:24.770Z,22.87
2017-08-11T16:23:51.168Z,23.07
2017-08-11T16:26:17.563Z,22.07
2017-08-11T16:28:44.036Z,21.57
2017-08-11T16:31:10.341Z,24.47
2017-08-11T16:33:36.711Z,23.17
2017-08-11T16:36:03.759Z,22.30
2017-08-11T16:38:30.955Z,23.03
2017-08-11T16:40:57.597Z,23.20
2017-08-11T16:43:24.125Z,20.07
2017-08-11T16:45:51.131Z,20.93
2017-08-11T16:48:18.287Z,21.77
2017-08-11T16:50:45.448Z,21.23
2017-08-11T16:53:11.827Z,21.70
2017-08-11T16:55:38.177Z,21.73
2017-08-11T16:58:04.540Z,22.57
2017-08-11T17:00:30.856Z,21.87
2017-08-11T17:02:57.904Z,23.13
2017-08-11T17:05:25.296Z,25.73
2017-08-11T17:07:51.689Z,22.63
2017-08-11T17:10:18.772Z,17.87
2017-08-11T17:12:45.108Z,15.40
2017-08-11T17:15:11.462Z,17.77
2017-08-11T17:17:37.760Z,14.17
2017-08-11T17:20:04.121Z,17.50
2017-08-11T17:22:30.429Z,19.30
2017-08-11T17:24:56.740Z,17.77
2017-08-11T17:27:23.211Z,17.70
2017-08-11T17:29:49.551Z,18.00
2017-08-11T17:32:15.897Z,15.67
2017-08-11T17:34:42.227Z,16.57
2017-08-11T17:37:08.626Z,17.53
2017-08-11T17:39:35.007Z,18.17
2017-08-11T17:42:02.220Z,19.23
2017-08-11T17:44:28.835Z,21.03
2017-08-11T17:46:55.211Z,19.90
2017-08-11T17:49:21.565Z,20.37
2017-08-11T17:51:48.707Z,16.50
2017-08-11T17:54:15.808Z,19.57
2017-08-11T17:56:42.443Z,16.57
2017-08-11T17:59:09.273Z,15.47
2017-08-11T18:01:35.775Z,18.87
2017-08-11T18:04:03.000Z,15.53
2017-08-11T18:06:29.815Z,16.97
2017-08-11T18:08:56.503Z,18.23
2017-08-11T18:11:23.939Z,15.50
2017-08-11T18:13:50.607Z,18.40
2017-08-11T18:16:18.053Z,16.27
2017-08-11T18:18:45.370Z,16.87
2017-08-11T18:21:12.871Z,16.43
2017-08-11T18:23:40.376Z,16.67
2017-08-11T18:26:07.785Z,15.87
2017-08-11T18:28:34.937Z,18.37
2017-08-11T18:31:02.791Z,19.10
2017-08-11T18:33:29.457Z,16.70
2017-08-11T18:35:56.020Z,17.27
2017-08-11T18:38:22.856Z,20.17
2017-08-11T18:40:50.327Z,20.50
2017-08-11T18:43:17.100Z,17.67
2017-08-11T18:45:43.912Z,16.97
2017-08-11T18:48:10.444Z,20.63
2017-08-11T18:50:37.667Z,19.13
2017-08-11T18:53:05.166Z,21.90
2017-08-11T18:55:31.791Z,22.10
2017-08-11T18:57:58.369Z,22.60
2017-08-11T19:00:24.964Z,25.00
2017-08-11T19:02:51.507Z,28.83
2017-08-11T19:05:18.444Z,30.77
2017-08-11T19:07:44.763Z,32.13
2017-08-11T19:10:11.434Z,26.67
2017-08-11T19:12:37.834Z,24.40
2017-08-11T19:15:04.236Z,26.13
2017-08-11T19:17:31.339Z,25.00
2017-08-11T19:19:57.631Z,23.10
2017-08-11T19:22:24.012Z,23.30
2017-08-11T19:24:50.367Z,24.33
2017-08-11T19:27:17.468Z,25.93
2017-08-11T19:29:43.832Z,24.17
2017-08-11T19:32:10.283Z,23.27
2017-08-11T19:34:37.324Z,23.87
2017-08-11T19:37:04.019Z,26.10
2017-08-11T19:39:30.376Z,26.40
2017-08-11T19:41:56.712Z,28.93
2017-08-11T19:44:23.062Z,24.70
2017-08-11T19:46:50.131Z,25.93
2017-08-11T19:49:16.531Z,28.70
2017-08-11T19:51:42.847Z,26.67
2017-08-11T19:54:09.316Z,27.47
2017-08-11T19:56:36.373Z,23.27
2017-08-11T19:59:02.792Z,26.23
2017-08-11T20:01:29.971Z,28.37
2017-08-11T20:03:56.351Z,31.13
2017-08-11T20:06:22.684Z,32.80
2017-08-11T20:08:49.034Z,28.03
2017-08-11T20:11:16.174Z,25.07
2017-08-11T20:13:42.540Z,26.53
2017-08-11T20:16:09.220Z,27.43
2017-08-11T20:18:35.527Z,26.23
2017-08-11T20:21:01.920Z,26.63
2017-08-11T20:23:29.044Z,26.83
2017-08-11T20:25:55.415Z,27.03
2017-08-11T20:28:21.747Z,26.30
2017-08-11T20:30:48.075Z,22.80
2017-08-11T20:33:14.487Z,24.00
2017-08-11T20:35:41.579Z,26.17
2017-08-11T20:38:07.863Z,20.43
2017-08-11T20:40:34.256Z,24.80
2017-08-11T20:43:00.563Z,22.43
2017-08-11T20:45:26.868Z,23.83
2017-08-11T20:47:53.975Z,19.37
2017-08-11T20:50:20.318Z,21.87
2017-08-11T20:52:46.712Z,20.30
2017-08-11T20:55:13.063Z,16.97
2017-08-11T20:57:39.446Z,18.97
2017-08-11T21:00:06.595Z,17.47
2017-08-11T21:02:33.708Z,20.60
2017-08-11T21:05:00.057Z,17.90
2017-08-11T21:07:26.456Z,16.23
2017-08-11T21:09:53.296Z,15.57
2017-08-11T21:12:19.625Z,17.37
2017-08-11T21:14:45.959Z,21.03
2017-08-11T21:17:12.306Z,17.40
2017-08-11T21:19:38.603Z,19.07
2017-08-11T21:22:04.948Z,17.00
2017-08-11T21:24:31.302Z,17.60
2017-08-11T21:26:57.600Z,15.20
2017-08-11T21:29:23.925Z,16.30
2017-08-11T21:31:50.447Z,16.13
2017-08-11T21:34:16.848Z,19.30
2017-08-11T21:36:43.487Z,18.93
2017-08-11T21:39:10.702Z,11.80
2017-08-11T21:41:37.275Z,14.70
2017-08-11T21:44:04.340Z,19.73
2017-08-11T21:46:31.474Z,14.50
2017-08-11T21:48:58.508Z,15.90
2017-08-11T21:51:24.839Z,16.53
2017-08-11T21:53:51.325Z,14.97
2017-08-11T21:56:17.624Z,14.27
2017-08-11T21:58:44.703Z,13.90
2017-08-11T22:01:11.073Z,14.13
2017-08-11T22:03:37.366Z,12.30
2017-08-11T22:06:03.741Z,16.03
2017-08-11T22:08:30.125Z,12.03
2017-08-11T22:10:56.985Z,12.63
2017-08-11T22:13:23.377Z,13.17
2017-08-11T22:15:49.778Z,15.70
2017-08-11T22:18:16.284Z,12.93
2017-08-11T22:20:42.587Z,17.50
2017-08-11T22:23:09.138Z,13.10
2017-08-11T22:25:35.538Z,14.10
2017-08-11T22:28:01.984Z,13.87
2017-08-11T22:30:28.439Z,10.87
2017-08-11T22:32:54.745Z,11.43
2017-08-11T22:35:21.105Z,11.43
2017-08-11T22:37:47.406Z,13.07
2017-08-11T22:40:13.752Z,12.70
2017-08-11T22:42:40.306Z,12.97
2017-08-11T22:45:06.669Z,11.10
2017-08-11T22:47:33.014Z,10.77
2017-08-11T22:49:59.375Z,14.77
2017-08-11T22:52:25.688Z,12.33
2017-08-11T22:54:52.753Z,12.20
2017-08-11T22:57:19.148Z,12.70
2017-08-11T22:59:45.456Z,13.97
2017-08-11T23:02:11.830Z,11.23
2017-08-11T23:04:38.956Z,15.90
2017-08-11T23:07:05.635Z,13.30
2017-08-11T23:09:31.993Z,13.80
2017-08-11T23:11:58.955Z,13.17
2017-08-11T23:14:27.525Z,14.83
2017-08-11T23:16:54.905Z,16.30
2017-08-11T23:19:21.228Z,16.30
2017-08-11T23:21:47.615Z,14.27
2017-08-11T23:24:13.932Z,14.17
2017-08-11T23:26:41.095Z,15.77
2017-08-11T23:29:07.520Z,14.57
2017-08-11T23:31:33.869Z,13.60
2017-08-11T23:34:00.260Z,15.57
2017-08-11T23:36:26.559Z,15.77
2017-08-11T23:38:52.863Z,14.07
2017-08-11T23:41:19.315Z,15.47
2017-08-11T23:43:45.647Z,14.33
2017-08-11T23:46:11.991Z,15.70
2017-08-11T23:48:38.312Z,16.67
2017-08-11T23:51:04.624Z,16.63
2017-08-11T23:53:30.955Z,17.40
2017-08-11T23:55:57.307Z,15.70
2017-08-11T23:58:23.616Z,14.90
